createdAt,value
2018-09-27T00:00:56.548Z,26.67
2018-09-27T00:01:56.552Z,26.75
2018-09-27T00:02:56.558Z,26.69
2018-09-27T00:03:56.565Z,26.72
2018-09-27T00:04:56.570Z,26.67
2018-09-27T00:05:56.577Z,26.73
2018-09-27T00:06:56.583Z,26.69
2018-09-27T00:07:56.588Z,26.65
2018-09-27T00:08:56.595Z,26.76
2018-09-27T00:09:56.600Z,26.72
2018-09-27T00:10:56.603Z,26.76
2018-09-27T00:11:56.610Z,26.75
2018-09-27T00:12:56.616Z,26.75
2018-09-27T00:13:56.621Z,26.70
2018-09-27T00:14:56.629Z,26.76
2018-09-27T00:15:56.632Z,26.63
2018-09-27T00:16:56.639Z,26.72
2018-09-27T00:17:56.644Z,26.73
2018-09-27T00:18:56.649Z,26.76
2018-09-27T00:19:56.655Z,26.75
2018-09-27T00:20:56.662Z,26.67
2018-09-27T00:21:56.666Z,26.65
2018-09-27T00:22:56.672Z,26.67
2018-09-27T00:23:56.679Z,26.75
2018-09-27T00:24:56.728Z,26.75
2018-09-27T00:25:56.689Z,26.67
2018-09-27T00:26:56.696Z,26.67
2018-09-27T00:27:56.700Z,26.67
2018-09-27T00:28:56.706Z,26.67
2018-09-27T00:29:56.711Z,26.72
2018-09-27T00:30:56.718Z,26.75
2018-09-27T00:31:56.723Z,26.72
2018-09-27T00:32:56.729Z,26.70
2018-09-27T00:33:56.734Z,26.69
2018-09-27T00:34:56.742Z,26.75
2018-09-27T00:35:56.746Z,26.75
2018-09-27T00:36:56.754Z,26.69
2018-09-27T00:37:56.756Z,26.72
2018-09-27T00:38:56.763Z,26.76
2018-09-27T00:39:56.772Z,26.76
2018-09-27T00:40:56.774Z,26.72
2018-09-27T00:41:56.779Z,26.66
2018-09-27T00:42:56.785Z,26.72
2018-09-27T00:43:56.795Z,26.72
2018-09-27T00:44:56.797Z,26.70
2018-09-27T00:45:56.804Z,26.80
2018-09-27T00:46:56.808Z,26.72
2018-09-27T00:47:56.815Z,26.75
2018-09-27T00:48:56.824Z,26.70
2018-09-27T00:49:56.825Z,26.77
2018-09-27T00:50:56.829Z,26.81
2018-09-27T00:51:56.835Z,26.76
2018-09-27T00:52:56.839Z,26.76
2018-09-27T00:53:56.846Z,26.72
2018-09-27T00:54:56.855Z,26.76
2018-09-27T00:55:56.860Z,26.75
2018-09-27T00:56:56.865Z,26.72
2018-09-27T00:57:56.870Z,26.75
2018-09-27T00:58:56.876Z,26.75
2018-09-27T00:59:56.884Z,26.73
2018-09-27T01:00:56.891Z,26.73
2018-09-27T01:01:56.891Z,26.75
2018-09-27T01:02:56.902Z,26.75
2018-09-27T01:03:56.905Z,26.75
2018-09-27T01:04:56.911Z,26.73
2018-09-27T01:05:56.915Z,26.73
2018-09-27T01:06:56.930Z,26.73
2018-09-27T01:07:56.929Z,26.72
2018-09-27T01:08:56.932Z,26.75
2018-09-27T01:09:56.938Z,26.70
2018-09-27T01:10:56.943Z,26.72
2018-09-27T01:11:56.947Z,26.75
2018-09-27T01:12:56.957Z,26.73
2018-09-27T01:13:56.965Z,26.73
2018-09-27T01:14:56.965Z,26.81
2018-09-27T01:15:56.972Z,26.69
2018-09-27T01:16:56.978Z,26.76
2018-09-27T01:17:56.984Z,26.80
2018-09-27T01:18:56.989Z,26.67
2018-09-27T01:19:56.994Z,26.73
2018-09-27T01:20:57.002Z,26.77
2018-09-27T01:21:57.006Z,26.70
2018-09-27T01:22:57.011Z,26.76
2018-09-27T01:23:57.021Z,26.75
2018-09-27T01:24:57.033Z,26.70
2018-09-27T01:25:57.031Z,26.70
2018-09-27T01:26:57.034Z,26.75
2018-09-27T01:27:57.040Z,26.81
2018-09-27T01:28:57.045Z,26.65
2018-09-27T01:29:57.050Z,26.69
2018-09-27T01:30:57.056Z,26.76
2018-09-27T01:31:57.063Z,26.76
2018-09-27T01:32:57.068Z,26.72
2018-09-27T01:33:57.085Z,26.77
2018-09-27T01:34:57.079Z,26.75
2018-09-27T01:35:57.088Z,26.72
2018-09-27T01:36:57.091Z,26.73
2018-09-27T01:37:57.096Z,26.80
2018-09-27T01:38:57.103Z,26.81
2018-09-27T01:39:57.108Z,26.75
2018-09-27T01:40:57.115Z,26.72
2018-09-27T01:41:57.117Z,26.72
2018-09-27T01:42:57.124Z,26.72
2018-09-27T01:43:57.129Z,26.73
2018-09-27T01:44:57.135Z,26.73
2018-09-27T01:45:57.142Z,26.73
2018-09-27T01:46:57.200Z,26.75
2018-09-27T01:47:57.158Z,26.73
2018-09-27T01:48:57.161Z,26.72
2018-09-27T01:49:57.165Z,26.73
2018-09-27T01:50:57.174Z,26.65
2018-09-27T01:51:57.175Z,26.77
2018-09-27T01:52:57.182Z,26.73
2018-09-27T01:53:57.186Z,26.73
2018-09-27T01:54:57.191Z,26.73
2018-09-27T01:55:57.197Z,26.73
2018-09-27T01:56:57.202Z,26.73
2018-09-27T01:57:57.209Z,26.73
2018-09-27T01:58:57.215Z,26.70
2018-09-27T01:59:57.223Z,26.72
2018-09-27T02:00:57.233Z,26.72
2018-09-27T02:01:57.231Z,26.72
2018-09-27T02:02:57.238Z,26.73
2018-09-27T02:03:57.243Z,26.72
2018-09-27T02:04:57.249Z,26.73
2018-09-27T02:05:57.255Z,26.81
2018-09-27T02:06:57.260Z,26.80
2018-09-27T02:07:57.266Z,26.70
2018-09-27T02:08:57.273Z,26.73
2018-09-27T02:09:57.277Z,26.73
2018-09-27T02:10:57.282Z,26.72
2018-09-27T02:11:57.289Z,26.72
2018-09-27T02:12:57.295Z,26.76
2018-09-27T02:13:57.299Z,26.72
2018-09-27T02:14:57.310Z,26.75
2018-09-27T02:15:57.311Z,26.76
2018-09-27T02:16:57.316Z,26.66
2018-09-27T02:17:57.323Z,26.65
2018-09-27T02:18:57.328Z,26.73
2018-09-27T02:19:57.342Z,26.65
2018-09-27T02:20:57.342Z,26.65
2018-09-27T02:21:57.344Z,26.58
2018-09-27T02:22:57.351Z,26.67
2018-09-27T02:23:57.357Z,26.65
2018-09-27T02:24:57.362Z,26.63
2018-09-27T02:25:57.370Z,26.65
2018-09-27T02:26:57.373Z,26.65
2018-09-27T02:27:57.383Z,26.58
2018-09-27T02:28:57.385Z,26.65
2018-09-27T02:29:57.391Z,26.66
2018-09-27T02:30:57.397Z,26.63
2018-09-27T02:31:57.402Z,26.65
2018-09-27T02:32:57.415Z,26.55
2018-09-27T02:33:57.413Z,26.57
2018-09-27T02:34:57.420Z,26.57
2018-09-27T02:35:57.432Z,26.65
2018-09-27T02:36:57.441Z,26.65
2018-09-27T02:37:57.435Z,26.60
2018-09-27T02:38:57.450Z,26.55
2018-09-27T02:39:57.453Z,26.55
2018-09-27T02:40:57.453Z,26.48
2018-09-27T02:41:57.458Z,26.57
2018-09-27T02:42:57.464Z,26.57
2018-09-27T02:43:57.470Z,26.50
2018-09-27T02:44:57.475Z,26.55
2018-09-27T02:45:57.480Z,26.48
2018-09-27T02:46:57.487Z,26.52
2018-09-27T02:47:57.492Z,26.51
2018-09-27T02:48:57.498Z,26.51
2018-09-27T02:49:57.502Z,26.50
2018-09-27T02:50:57.509Z,26.47
2018-09-27T02:51:57.513Z,26.50
2018-09-27T02:52:57.520Z,26.48
2018-09-27T02:53:57.523Z,26.47
2018-09-27T02:54:57.530Z,26.44
2018-09-27T02:55:57.538Z,26.44
2018-09-27T02:56:57.542Z,26.47
2018-09-27T02:57:57.545Z,26.45
2018-09-27T02:58:57.552Z,26.44
2018-09-27T02:59:57.558Z,26.45
2018-09-27T03:00:57.565Z,26.39
2018-09-27T03:01:57.568Z,26.40
2018-09-27T03:02:57.575Z,26.40
2018-09-27T03:03:57.583Z,26.43
2018-09-27T03:04:57.587Z,26.43
2018-09-27T03:05:57.590Z,26.39
2018-09-27T03:06:57.631Z,26.36
2018-09-27T03:07:57.602Z,26.35
2018-09-27T03:08:57.609Z,26.33
2018-09-27T03:09:57.612Z,26.35
2018-09-27T03:10:57.620Z,26.32
2018-09-27T03:11:57.623Z,26.37
2018-09-27T03:12:57.630Z,26.28
2018-09-27T03:13:57.725Z,26.36
2018-09-27T03:14:57.641Z,26.28
2018-09-27T03:15:57.645Z,26.25
2018-09-27T03:16:57.652Z,26.36
2018-09-27T03:17:57.656Z,26.35
2018-09-27T03:18:57.666Z,26.30
2018-09-27T03:19:57.668Z,26.39
2018-09-27T03:20:57.805Z,26.29
2018-09-27T03:21:57.677Z,26.33
2018-09-27T03:22:57.686Z,26.29
2018-09-27T03:23:57.693Z,26.37
2018-09-27T03:24:57.699Z,26.32
2018-09-27T03:25:57.701Z,26.37
2018-09-27T03:26:57.706Z,26.35
2018-09-27T03:27:57.715Z,26.40
2018-09-27T03:28:57.716Z,26.35
2018-09-27T03:29:57.723Z,26.32
2018-09-27T03:30:57.727Z,26.39
2018-09-27T03:31:57.752Z,26.32
2018-09-27T03:32:57.740Z,26.37
2018-09-27T03:33:57.743Z,26.36
2018-09-27T03:34:57.749Z,26.39
2018-09-27T03:35:57.754Z,26.39
2018-09-27T03:36:57.768Z,26.37
2018-09-27T03:37:57.764Z,26.39
2018-09-27T03:38:57.770Z,26.35
2018-09-27T03:39:57.827Z,26.36
2018-09-27T03:40:57.782Z,26.36
2018-09-27T03:41:57.787Z,26.36
2018-09-27T03:42:57.793Z,26.37
2018-09-27T03:43:57.799Z,26.37
2018-09-27T03:44:57.805Z,26.36
2018-09-27T03:45:57.809Z,26.37
2018-09-27T03:46:57.815Z,26.35
2018-09-27T03:47:57.821Z,26.33
2018-09-27T03:48:57.825Z,26.32
2018-09-27T03:49:57.830Z,26.25
2018-09-27T03:50:57.836Z,26.35
2018-09-27T03:51:57.845Z,26.29
2018-09-27T03:52:57.848Z,26.35
2018-09-27T03:53:57.851Z,26.32
2018-09-27T03:54:57.858Z,26.35
2018-09-27T03:55:57.864Z,26.30
2018-09-27T03:56:57.872Z,26.36
2018-09-27T03:57:57.874Z,26.32
2018-09-27T03:58:57.880Z,26.25
2018-09-27T03:59:57.885Z,26.36
2018-09-27T04:00:57.891Z,26.28
2018-09-27T04:01:57.896Z,26.32
2018-09-27T04:02:57.901Z,26.35
2018-09-27T04:03:57.905Z,26.18
2018-09-27T04:04:57.911Z,26.30
2018-09-27T04:05:57.916Z,26.29
2018-09-27T04:06:57.923Z,26.29
2018-09-27T04:07:57.927Z,26.30
2018-09-27T04:08:57.935Z,26.21
2018-09-27T04:09:57.939Z,26.21
2018-09-27T04:10:57.942Z,26.21
2018-09-27T04:11:57.951Z,26.20
2018-09-27T04:12:57.954Z,26.25
2018-09-27T04:13:57.962Z,26.29
2018-09-27T04:14:57.964Z,26.18
2018-09-27T04:15:58.079Z,26.28
2018-09-27T04:16:57.976Z,26.32
2018-09-27T04:17:57.981Z,26.21
2018-09-27T04:18:57.987Z,26.29
2018-09-27T04:19:57.994Z,26.30
2018-09-27T04:20:57.997Z,26.30
2018-09-27T04:21:58.057Z,26.29
2018-09-27T04:22:58.007Z,26.28
2018-09-27T04:23:58.063Z,26.33
2018-09-27T04:24:58.021Z,26.29
2018-09-27T04:25:58.025Z,26.26
2018-09-27T04:26:58.030Z,26.26
2018-09-27T04:27:58.035Z,26.26
2018-09-27T04:28:58.041Z,26.33
2018-09-27T04:29:58.046Z,26.26
2018-09-27T04:30:58.054Z,26.32
2018-09-27T04:31:58.056Z,26.32
2018-09-27T04:32:58.063Z,26.29
2018-09-27T04:33:58.079Z,26.29
2018-09-27T04:34:58.073Z,26.30
2018-09-27T04:35:58.077Z,26.28
2018-09-27T04:36:58.084Z,26.28
2018-09-27T04:37:58.089Z,26.30
2018-09-27T04:38:58.095Z,26.29
2018-09-27T04:39:58.101Z,26.30
2018-09-27T04:40:58.147Z,26.26
2018-09-27T04:41:58.109Z,26.35
2018-09-27T04:42:58.115Z,26.35
2018-09-27T04:43:58.123Z,26.30
2018-09-27T04:44:58.131Z,26.33
2018-09-27T04:45:58.162Z,26.43
2018-09-27T04:46:58.137Z,26.44
2018-09-27T04:47:58.142Z,26.47
2018-09-27T04:48:58.149Z,26.51
2018-09-27T04:49:58.153Z,26.40
2018-09-27T04:50:58.159Z,26.47
2018-09-27T04:51:58.268Z,26.50
2018-09-27T04:52:58.170Z,26.47
2018-09-27T04:53:58.181Z,26.51
2018-09-27T04:54:58.181Z,26.51
2018-09-27T04:55:58.189Z,26.55
2018-09-27T04:56:58.201Z,26.62
2018-09-27T04:57:58.198Z,26.58
2018-09-27T04:58:58.202Z,26.62
2018-09-27T04:59:58.232Z,26.72
2018-09-27T05:00:58.215Z,26.65
2018-09-27T05:01:58.236Z,26.70
2018-09-27T05:02:58.226Z,26.72
2018-09-27T05:03:58.230Z,26.73
2018-09-27T05:04:58.240Z,26.75
2018-09-27T05:05:58.241Z,26.72
2018-09-27T05:06:58.249Z,26.75
2018-09-27T05:07:58.252Z,26.91
2018-09-27T05:08:58.261Z,26.85
2018-09-27T05:09:58.266Z,26.85
2018-09-27T05:10:58.269Z,26.84
2018-09-27T05:11:58.276Z,26.88
2018-09-27T05:12:58.283Z,26.88
2018-09-27T05:13:58.286Z,26.92
2018-09-27T05:14:58.292Z,26.92
2018-09-27T05:15:58.366Z,27.04
2018-09-27T05:16:58.305Z,26.95
2018-09-27T05:17:58.309Z,27.04
2018-09-27T05:18:58.316Z,27.06
2018-09-27T05:19:58.322Z,27.10
2018-09-27T05:20:58.329Z,27.13
2018-09-27T05:21:58.332Z,27.14
2018-09-27T05:22:58.336Z,27.07
2018-09-27T05:23:58.345Z,27.07
2018-09-27T05:24:58.349Z,27.17
2018-09-27T05:25:58.356Z,27.19
2018-09-27T05:26:58.362Z,27.22
2018-09-27T05:27:58.368Z,27.24
2018-09-27T05:28:58.373Z,27.22
2018-09-27T05:29:58.381Z,27.21
2018-09-27T05:30:58.385Z,27.27
2018-09-27T05:31:58.390Z,27.22
2018-09-27T05:32:58.396Z,27.31
2018-09-27T05:33:58.402Z,27.27
2018-09-27T05:34:58.406Z,27.28
2018-09-27T05:35:58.415Z,27.36
2018-09-27T05:36:58.424Z,27.37
2018-09-27T05:37:58.427Z,27.32
2018-09-27T05:38:58.432Z,27.36
2018-09-27T05:39:58.447Z,27.29
2018-09-27T05:40:58.444Z,27.44
2018-09-27T05:41:58.453Z,27.37
2018-09-27T05:42:58.469Z,27.41
2018-09-27T05:43:58.517Z,27.37
2018-09-27T05:44:58.479Z,27.50
2018-09-27T05:45:58.476Z,27.43
2018-09-27T05:46:58.481Z,27.43
2018-09-27T05:47:58.486Z,27.43
2018-09-27T05:48:58.492Z,27.41
2018-09-27T05:49:58.593Z,27.46
2018-09-27T05:50:58.503Z,27.54
2018-09-27T05:51:58.511Z,27.54
2018-09-27T05:52:58.516Z,27.47
2018-09-27T05:53:58.525Z,27.43
2018-09-27T05:54:58.532Z,27.51
2018-09-27T05:55:58.554Z,27.54
2018-09-27T05:56:58.541Z,27.59
2018-09-27T05:57:58.548Z,27.59
2018-09-27T05:58:58.551Z,27.59
2018-09-27T05:59:58.565Z,27.60
2018-09-27T06:00:58.565Z,27.59
2018-09-27T06:01:58.608Z,27.57
2018-09-27T06:02:58.578Z,27.70
2018-09-27T06:03:58.584Z,27.66
2018-09-27T06:04:58.590Z,27.54
2018-09-27T06:05:58.595Z,27.66
2018-09-27T06:06:58.602Z,27.57
2018-09-27T06:07:58.610Z,27.65
2018-09-27T06:08:58.623Z,27.63
2018-09-27T06:09:58.620Z,27.60
2018-09-27T06:10:58.626Z,27.69
2018-09-27T06:11:58.632Z,27.67
2018-09-27T06:12:58.639Z,27.63
2018-09-27T06:13:58.644Z,27.70
2018-09-27T06:14:58.649Z,27.66
2018-09-27T06:15:58.657Z,27.67
2018-09-27T06:16:58.667Z,27.63
2018-09-27T06:17:58.677Z,27.69
2018-09-27T06:18:58.676Z,27.67
2018-09-27T06:19:58.683Z,27.66
2018-09-27T06:20:58.688Z,27.65
2018-09-27T06:21:58.693Z,27.69
2018-09-27T06:22:58.702Z,27.66
2018-09-27T06:23:58.705Z,27.63
2018-09-27T06:24:58.715Z,27.60
2018-09-27T06:25:58.731Z,27.67
2018-09-27T06:26:58.725Z,27.59
2018-09-27T06:27:58.730Z,27.63
2018-09-27T06:28:58.744Z,27.67
2018-09-27T06:29:58.746Z,27.62
2018-09-27T06:30:58.749Z,27.66
2018-09-27T06:31:58.753Z,27.63
2018-09-27T06:32:58.762Z,27.62
2018-09-27T06:33:58.768Z,27.55
2018-09-27T06:34:58.793Z,27.63
2018-09-27T06:35:58.779Z,27.69
2018-09-27T06:36:58.787Z,27.59
2018-09-27T06:37:58.793Z,27.54
2018-09-27T06:38:58.799Z,27.57
2018-09-27T06:39:58.806Z,27.59
2018-09-27T06:40:58.812Z,27.55
2018-09-27T06:41:58.817Z,27.65
2018-09-27T06:42:58.824Z,27.67
2018-09-27T06:43:58.829Z,27.60
2018-09-27T06:44:58.840Z,27.60
2018-09-27T06:45:58.842Z,27.59
2018-09-27T06:46:58.848Z,27.57
2018-09-27T06:47:58.856Z,27.57
2018-09-27T06:48:58.861Z,27.60
2018-09-27T06:49:58.868Z,27.59
2018-09-27T06:50:58.873Z,27.55
2018-09-27T06:51:58.879Z,27.57
2018-09-27T06:52:58.885Z,27.65
2018-09-27T06:53:58.890Z,27.59
2018-09-27T06:54:59.076Z,27.63
2018-09-27T06:55:59.078Z,27.66
2018-09-27T06:56:58.909Z,27.65
2018-09-27T06:57:58.914Z,27.59
2018-09-27T06:58:58.923Z,27.54
2018-09-27T06:59:58.929Z,27.59
2018-09-27T07:00:59.067Z,27.63
2018-09-27T07:01:58.940Z,27.63
2018-09-27T07:02:58.945Z,27.62
2018-09-27T07:03:58.952Z,27.59
2018-09-27T07:04:58.965Z,27.62
2018-09-27T07:05:58.966Z,27.67
2018-09-27T07:06:58.973Z,27.65
2018-09-27T07:07:58.976Z,27.63
2018-09-27T07:08:58.985Z,27.62
2018-09-27T07:09:58.989Z,27.67
2018-09-27T07:10:58.997Z,27.67
2018-09-27T07:11:59.037Z,27.69
2018-09-27T07:12:59.009Z,27.69
2018-09-27T07:13:59.013Z,27.69
2018-09-27T07:14:59.022Z,27.69
2018-09-27T07:15:59.031Z,27.66
2018-09-27T07:16:59.033Z,27.65
2018-09-27T07:17:59.037Z,27.63
2018-09-27T07:18:59.048Z,27.72
2018-09-27T07:19:59.053Z,27.67
2018-09-27T07:20:59.058Z,27.62
2018-09-27T07:21:59.063Z,27.69
2018-09-27T07:22:59.071Z,27.72
2018-09-27T07:23:59.076Z,27.74
2018-09-27T07:24:59.135Z,27.65
2018-09-27T07:25:59.086Z,27.74
2018-09-27T07:26:59.215Z,27.67
2018-09-27T07:27:59.103Z,27.70
2018-09-27T07:28:59.110Z,27.60
2018-09-27T07:29:59.113Z,27.69
2018-09-27T07:30:59.139Z,27.69
2018-09-27T07:31:59.129Z,27.67
2018-09-27T07:32:59.137Z,27.70
2018-09-27T07:33:59.138Z,27.62
2018-09-27T07:34:59.148Z,27.74
2018-09-27T07:35:59.156Z,27.77
2018-09-27T07:36:59.158Z,27.69
2018-09-27T07:37:59.166Z,27.75
2018-09-27T07:38:59.168Z,27.70
2018-09-27T07:39:59.177Z,27.77
2018-09-27T07:40:59.184Z,27.65
2018-09-27T07:41:59.188Z,27.69
2018-09-27T07:42:59.193Z,27.67
2018-09-27T07:43:59.203Z,27.66
2018-09-27T07:44:59.205Z,27.70
2018-09-27T07:45:59.211Z,27.65
2018-09-27T07:46:59.218Z,27.65
2018-09-27T07:47:59.227Z,27.63
2018-09-27T07:48:59.233Z,27.70
2018-09-27T07:49:59.239Z,27.70
2018-09-27T07:50:59.244Z,27.75
2018-09-27T07:51:59.256Z,27.72
2018-09-27T07:52:59.258Z,27.72
2018-09-27T07:53:59.261Z,27.65
2018-09-27T07:54:59.269Z,27.77
2018-09-27T07:55:59.274Z,27.74
2018-09-27T07:56:59.285Z,27.77
2018-09-27T07:57:59.291Z,27.79
2018-09-27T07:58:59.302Z,27.79
2018-09-27T07:59:59.300Z,27.77
2018-09-27T08:00:59.306Z,27.74
2018-09-27T08:01:59.311Z,27.82
2018-09-27T08:02:59.397Z,27.79
2018-09-27T08:03:59.350Z,27.77
2018-09-27T08:04:59.328Z,27.79
2018-09-27T08:05:59.339Z,27.79
2018-09-27T08:06:59.343Z,27.84
2018-09-27T08:07:59.353Z,27.78
2018-09-27T08:08:59.358Z,27.81
2018-09-27T08:09:59.366Z,27.81
2018-09-27T08:10:59.410Z,27.74
2018-09-27T08:11:59.486Z,27.81
2018-09-27T08:12:59.382Z,27.74
2018-09-27T08:13:59.385Z,27.77
2018-09-27T08:14:59.391Z,27.81
2018-09-27T08:15:59.398Z,27.79
2018-09-27T08:16:59.522Z,27.78
2018-09-27T08:17:59.411Z,27.75
2018-09-27T08:18:59.417Z,27.72
2018-09-27T08:19:59.429Z,27.78
2018-09-27T08:20:59.590Z,27.81
2018-09-27T08:21:59.437Z,27.77
2018-09-27T08:22:59.442Z,27.74
2018-09-27T08:23:59.504Z,27.90
2018-09-27T08:24:59.455Z,27.84
2018-09-27T08:25:59.461Z,27.92
2018-09-27T08:26:59.472Z,27.81
2018-09-27T08:27:59.479Z,27.74
2018-09-27T08:28:59.479Z,27.92
2018-09-27T08:29:59.485Z,27.81
2018-09-27T08:30:59.602Z,27.78
2018-09-27T08:31:59.495Z,27.87
2018-09-27T08:32:59.505Z,27.78
2018-09-27T08:33:59.515Z,27.85
2018-09-27T08:34:59.517Z,27.87
2018-09-27T08:35:59.526Z,27.81
2018-09-27T08:36:59.531Z,27.87
2018-09-27T08:37:59.536Z,27.85
2018-09-27T08:38:59.542Z,27.79
2018-09-27T08:39:59.548Z,27.92
2018-09-27T08:40:59.556Z,27.82
2018-09-27T08:41:59.560Z,27.93
2018-09-27T08:42:59.567Z,27.78
2018-09-27T08:43:59.573Z,27.90
2018-09-27T08:44:59.774Z,27.87
2018-09-27T08:45:59.586Z,27.82
2018-09-27T08:46:59.594Z,27.75
2018-09-27T08:47:59.599Z,27.75
2018-09-27T08:48:59.607Z,27.85
2018-09-27T08:49:59.611Z,27.87
2018-09-27T08:50:59.619Z,27.82
2018-09-27T08:51:59.624Z,27.81
2018-09-27T08:52:59.629Z,27.85
2018-09-27T08:53:59.640Z,27.82
2018-09-27T08:54:59.643Z,27.90
2018-09-27T08:55:59.697Z,27.85
2018-09-27T08:56:59.658Z,27.77
2018-09-27T08:57:59.660Z,27.90
2018-09-27T08:58:59.670Z,27.84
2018-09-27T08:59:59.677Z,27.85
2018-09-27T09:00:59.678Z,27.87
2018-09-27T09:01:59.687Z,27.90
2018-09-27T09:02:59.691Z,27.78
2018-09-27T09:03:59.720Z,27.74
2018-09-27T09:04:59.708Z,27.82
2018-09-27T09:05:59.713Z,27.84
2018-09-27T09:06:59.717Z,27.77
2018-09-27T09:07:59.726Z,27.79
2018-09-27T09:08:59.733Z,27.82
2018-09-27T09:09:59.735Z,27.78
2018-09-27T09:10:59.744Z,27.75
2018-09-27T09:11:59.855Z,27.81
2018-09-27T09:12:59.755Z,27.67
2018-09-27T09:13:59.765Z,27.65
2018-09-27T09:14:59.768Z,27.70
2018-09-27T09:15:59.776Z,27.63
2018-09-27T09:16:59.783Z,27.69
2018-09-27T09:17:59.788Z,27.59
2018-09-27T09:18:59.792Z,27.57
2018-09-27T09:19:59.805Z,27.60
2018-09-27T09:20:59.813Z,27.51
2018-09-27T09:21:59.811Z,27.59
2018-09-27T09:22:59.818Z,27.54
2018-09-27T09:23:59.823Z,27.51
2018-09-27T09:24:59.829Z,27.51
2018-09-27T09:25:59.863Z,27.44
2018-09-27T09:26:59.846Z,27.39
2018-09-27T09:27:59.850Z,27.47
2018-09-27T09:28:59.856Z,27.47
2018-09-27T09:29:59.986Z,27.41
2018-09-27T09:30:59.866Z,27.41
2018-09-27T09:31:59.874Z,27.40
2018-09-27T09:32:59.881Z,27.50
2018-09-27T09:33:59.888Z,27.31
2018-09-27T09:34:59.895Z,27.32
2018-09-27T09:35:59.980Z,27.28
2018-09-27T09:36:59.906Z,27.29
2018-09-27T09:37:59.909Z,27.36
2018-09-27T09:38:59.916Z,27.36
2018-09-27T09:39:59.922Z,27.27
2018-09-27T09:40:59.928Z,27.27
2018-09-27T09:41:59.935Z,27.25
2018-09-27T09:42:59.940Z,27.22
2018-09-27T09:43:59.945Z,27.28
2018-09-27T09:44:59.954Z,27.22
2018-09-27T09:45:59.957Z,27.25
2018-09-27T09:46:59.962Z,27.19
2018-09-27T09:47:59.969Z,27.24
2018-09-27T09:48:59.976Z,27.22
2018-09-27T09:50:00.032Z,27.21
2018-09-27T09:50:59.996Z,27.19
2018-09-27T09:51:59.999Z,27.21
2018-09-27T09:52:59.997Z,27.13
2018-09-27T09:54:00.004Z,27.17
2018-09-27T09:55:00.012Z,27.13
2018-09-27T09:56:00.017Z,27.13
2018-09-27T09:57:00.030Z,27.18
2018-09-27T09:58:00.029Z,27.13
2018-09-27T09:59:00.033Z,27.17
2018-09-27T10:00:00.042Z,27.13
2018-09-27T10:01:00.047Z,27.14
2018-09-27T10:02:00.051Z,27.10
2018-09-27T10:03:00.059Z,27.09
2018-09-27T10:04:00.069Z,27.07
2018-09-27T10:05:00.071Z,27.03
2018-09-27T10:06:00.078Z,27.13
2018-09-27T10:07:00.078Z,27.10
2018-09-27T10:08:00.092Z,27.07
2018-09-27T10:09:00.189Z,27.10
2018-09-27T10:10:00.098Z,27.07
2018-09-27T10:11:00.105Z,27.09
2018-09-27T10:12:00.111Z,27.12
2018-09-27T10:13:00.117Z,27.09
2018-09-27T10:14:00.122Z,27.12
2018-09-27T10:15:00.128Z,27.09
2018-09-27T10:16:00.162Z,27.14
2018-09-27T10:17:00.139Z,27.17
2018-09-27T10:18:00.144Z,27.28
2018-09-27T10:19:00.152Z,27.19
2018-09-27T10:20:00.157Z,27.25
2018-09-27T10:21:00.163Z,27.25
2018-09-27T10:22:00.243Z,27.25
2018-09-27T10:23:00.182Z,27.27
2018-09-27T10:24:00.183Z,27.29
2018-09-27T10:25:00.188Z,27.36
2018-09-27T10:26:00.190Z,27.40
2018-09-27T10:27:00.199Z,27.32
2018-09-27T10:28:00.204Z,27.39
2018-09-27T10:29:00.214Z,27.41
2018-09-27T10:30:00.218Z,27.41
2018-09-27T10:31:00.223Z,27.39
2018-09-27T10:32:00.229Z,27.41
2018-09-27T10:33:00.235Z,27.41
2018-09-27T10:34:00.297Z,27.44
2018-09-27T10:35:00.250Z,27.41
2018-09-27T10:36:00.254Z,27.43
2018-09-27T10:37:00.256Z,27.41
2018-09-27T10:38:00.265Z,27.50
2018-09-27T10:39:00.270Z,27.44
2018-09-27T10:40:00.276Z,27.47
2018-09-27T10:41:00.290Z,27.54
2018-09-27T10:42:00.298Z,27.54
2018-09-27T10:43:00.298Z,27.59
2018-09-27T10:44:00.300Z,27.59
2018-09-27T10:45:00.320Z,27.67
2018-09-27T10:46:00.320Z,27.62
2018-09-27T10:47:00.325Z,27.69
2018-09-27T10:48:00.325Z,27.63
2018-09-27T10:49:00.334Z,27.74
2018-09-27T10:50:00.335Z,27.69
2018-09-27T10:51:00.344Z,27.69
2018-09-27T10:52:00.353Z,27.69
2018-09-27T10:53:00.358Z,27.72
2018-09-27T10:54:00.359Z,27.82
2018-09-27T10:55:00.367Z,27.78
2018-09-27T10:56:00.377Z,27.78
2018-09-27T10:57:00.435Z,27.79
2018-09-27T10:58:00.389Z,27.78
2018-09-27T10:59:00.390Z,27.85
2018-09-27T11:00:00.409Z,27.90
2018-09-27T11:01:00.405Z,27.92
2018-09-27T11:02:00.410Z,27.87
2018-09-27T11:03:00.416Z,27.78
2018-09-27T11:04:00.429Z,27.78
2018-09-27T11:05:00.430Z,27.77
2018-09-27T11:06:00.434Z,27.72
2018-09-27T11:07:00.457Z,27.92
2018-09-27T11:08:00.449Z,27.92
2018-09-27T11:09:00.461Z,27.81
2018-09-27T11:10:00.473Z,27.84
2018-09-27T11:11:00.526Z,27.97
2018-09-27T11:12:00.476Z,27.96
2018-09-27T11:13:00.478Z,27.90
2018-09-27T11:14:00.484Z,27.88
2018-09-27T11:15:00.494Z,27.90
2018-09-27T11:16:00.498Z,27.82
2018-09-27T11:17:00.504Z,27.94
2018-09-27T11:18:00.508Z,27.88
2018-09-27T11:19:00.530Z,27.92
2018-09-27T11:20:00.524Z,27.94
2018-09-27T11:21:00.531Z,27.90
2018-09-27T11:22:00.560Z,27.88
2018-09-27T11:23:00.542Z,27.92
2018-09-27T11:24:00.547Z,27.88
2018-09-27T11:25:00.557Z,27.90
2018-09-27T11:26:00.565Z,27.97
2018-09-27T11:27:00.569Z,27.96
2018-09-27T11:28:00.574Z,27.93
2018-09-27T11:29:00.665Z,28.07
2018-09-27T11:30:00.588Z,28.09
2018-09-27T11:31:00.594Z,28.07
2018-09-27T11:32:00.600Z,28.07
2018-09-27T11:33:00.778Z,28.07
2018-09-27T11:34:00.611Z,28.03
2018-09-27T11:35:00.664Z,28.07
2018-09-27T11:36:00.626Z,28.14
2018-09-27T11:37:00.633Z,28.18
2018-09-27T11:38:00.735Z,28.11
2018-09-27T11:39:00.644Z,28.18
2018-09-27T11:40:00.652Z,28.22
2018-09-27T11:41:00.658Z,28.18
2018-09-27T11:42:00.665Z,28.24
2018-09-27T11:43:00.723Z,28.22
2018-09-27T11:44:00.693Z,28.22
2018-09-27T11:45:00.685Z,28.22
2018-09-27T11:46:00.690Z,28.24
2018-09-27T11:47:00.699Z,28.24
2018-09-27T11:48:00.732Z,28.27
2018-09-27T11:49:00.762Z,28.31
2018-09-27T11:50:00.802Z,28.29
2018-09-27T11:51:00.726Z,28.36
2018-09-27T11:52:00.736Z,28.31
2018-09-27T11:53:00.787Z,28.31
2018-09-27T11:54:00.743Z,28.31
2018-09-27T11:55:00.801Z,28.24
2018-09-27T11:56:00.892Z,28.29
2018-09-27T11:57:00.763Z,28.33
2018-09-27T11:58:00.770Z,28.39
2018-09-27T11:59:00.796Z,28.29
2018-09-27T12:00:00.792Z,28.37
2018-09-27T12:01:00.789Z,28.37
2018-09-27T12:02:00.796Z,28.40
2018-09-27T12:03:00.802Z,28.39
2018-09-27T12:04:00.811Z,28.48
2018-09-27T12:05:00.821Z,28.43
2018-09-27T12:06:00.824Z,28.54
2018-09-27T12:07:00.838Z,28.41
2018-09-27T12:08:00.839Z,28.46
2018-09-27T12:09:00.845Z,28.52
2018-09-27T12:10:00.849Z,28.44
2018-09-27T12:11:00.858Z,28.54
2018-09-27T12:12:00.914Z,28.41
2018-09-27T12:13:00.871Z,28.40
2018-09-27T12:14:00.877Z,28.36
2018-09-27T12:15:00.882Z,28.36
2018-09-27T12:16:00.893Z,28.49
2018-09-27T12:17:00.925Z,28.52
2018-09-27T12:18:00.903Z,28.48
2018-09-27T12:19:00.910Z,28.56
2018-09-27T12:20:00.961Z,28.49
2018-09-27T12:21:00.927Z,28.56
2018-09-27T12:22:00.928Z,28.61
2018-09-27T12:23:00.970Z,28.61
2018-09-27T12:24:00.946Z,28.52
2018-09-27T12:25:00.952Z,28.67
2018-09-27T12:26:00.960Z,28.64
2018-09-27T12:27:00.965Z,28.66
2018-09-27T12:28:00.973Z,28.58
2018-09-27T12:29:00.978Z,28.70
2018-09-27T12:30:00.986Z,28.74
2018-09-27T12:31:01.062Z,28.61
2018-09-27T12:32:01.014Z,28.68
2018-09-27T12:33:01.005Z,28.68
2018-09-27T12:34:01.094Z,28.67
2018-09-27T12:35:01.022Z,28.71
2018-09-27T12:36:01.028Z,28.67
2018-09-27T12:37:01.033Z,28.67
2018-09-27T12:38:01.038Z,28.64
2018-09-27T12:39:01.153Z,28.73
2018-09-27T12:40:01.056Z,28.70
2018-09-27T12:41:01.058Z,28.73
2018-09-27T12:42:01.243Z,28.71
2018-09-27T12:43:01.119Z,28.64
2018-09-27T12:44:01.080Z,28.70
2018-09-27T12:45:01.144Z,28.68
2018-09-27T12:46:01.197Z,28.62
2018-09-27T12:47:01.201Z,28.68
2018-09-27T12:48:01.117Z,28.68
2018-09-27T12:49:01.216Z,28.67
2018-09-27T12:50:01.122Z,28.67
2018-09-27T12:51:01.207Z,28.71
2018-09-27T12:52:01.384Z,28.70
2018-09-27T12:53:01.388Z,28.66